»·PEaware :: N21CA KSBD-KGCN

N21CA :: KSBD-KGCN

FLIGHT INFORMATION

Flight Status: Arrived
Operator: Privately registered:
United States
More flights under this callsign
Pilot: Carmen A. (14235)
Aircraft: CESSNA 500 CITATION 1
(C500)
More flights by this aircraft type
Origin: KSBD San Bernardino Intl
United States
Destination: KGCN Grand Canyon Natl Park
United States
More flights between these airports :: More routes between these airports
Route: +PDZ DAWNA V8 GFS V210 GUCRU KGCN
File this flight plan on PilotEdge
Remarks:
Altitude:
(Current/Filed)
25,000ft
Speed:
(Current/Filed)
350kts
Departed: 07-Jan-18 08:51 PM
Arrived: 07-Jan-18 09:44 PM
Distance/Time
Traveled:
274nm/0:52
Distance/Time
To Go:
Arrived

Flight Plot

Page will automatically refresh every two minutes.

Flight plan parsing failed; only flown route is shown


Map Options




Map Legend


Flown Route
Filed Route
Departure Airport
Arrival Airport
Navaid (VOR, NDB)
Fix

Horizontal Profiles

Position Reports

Time Latitude Longitude Heading Altitude Ground
Speed
07-Jan-18 20:26 34.095885 -117.245622 358 1122ft 0kts
07-Jan-18 20:27 34.095888 -117.245623 358 1122ft 0kts
07-Jan-18 20:28 34.095890 -117.245623 358 1122ft 0kts
07-Jan-18 20:29 34.095893 -117.245623 358 1122ft 0kts
07-Jan-18 20:30 34.095896 -117.245623 358 1122ft 0kts
07-Jan-18 20:31 34.095898 -117.245623 358 1122ft 0kts
07-Jan-18 20:32 34.095901 -117.245623 358 1122ft 0kts
07-Jan-18 20:33 34.095904 -117.245623 358 1122ft 0kts
07-Jan-18 20:34 34.095906 -117.245623 358 1122ft 0kts
07-Jan-18 20:35 34.095909 -117.245623 358 1122ft 0kts
07-Jan-18 20:36 34.095912 -117.245623 358 1122ft 0kts
07-Jan-18 20:37 34.095914 -117.245623 358 1122ft 0kts
07-Jan-18 20:38 34.095917 -117.245623 358 1122ft 0kts
07-Jan-18 20:39 34.095920 -117.245623 358 1122ft 0kts
07-Jan-18 20:40 34.095922 -117.245623 358 1122ft 0kts
07-Jan-18 20:41 34.095925 -117.245623 358 1122ft 0kts
07-Jan-18 20:42 34.095928 -117.245623 358 1122ft 0kts
07-Jan-18 20:43 34.095930 -117.245623 358 1122ft 0kts
07-Jan-18 20:44 34.095933 -117.245623 358 1122ft 0kts
07-Jan-18 20:45 34.095935 -117.245623 358 1122ft 0kts
07-Jan-18 20:46 34.095938 -117.245624 358 1122ft 0kts
07-Jan-18 20:47 34.095940 -117.245624 358 1122ft 0kts
07-Jan-18 20:48 34.095943 -117.245624 358 1122ft 0kts
07-Jan-18 20:49 34.095945 -117.245624 358 1122ft 0kts
07-Jan-18 20:50 34.095948 -117.245624 358 1122ft 0kts
07-Jan-18 20:51 34.095950 -117.245624 358 1122ft 0kts
07-Jan-18 20:52 34.095953 -117.245624 358 1122ft 0kts
07-Jan-18 20:53 34.095944 -117.245479 180 1122ft 0kts
07-Jan-18 20:54 34.095046 -117.245445 156 1122ft 19kts
07-Jan-18 20:55 34.098059 -117.232086 70 1122ft 39kts
07-Jan-18 20:56 34.101094 -117.221807 69 1122ft 31kts
07-Jan-18 20:57 34.097940 -117.226136 250 1122ft 100kts
07-Jan-18 20:58 34.078652 -117.267381 229 3295ft 160kts
07-Jan-18 20:59 34.048103 -117.317898 238 5538ft 214kts
07-Jan-18 21:00 34.027621 -117.383954 283 7285ft 241kts
07-Jan-18 21:01 34.082642 -117.420577 358 8909ft 257kts
07-Jan-18 21:02 34.157404 -117.418177 25 8980ft 277kts
07-Jan-18 21:03 34.200478 -117.344988 64 9018ft 272kts
07-Jan-18 21:04 34.230806 -117.261665 70 9380ft 257kts
07-Jan-18 21:05 34.254106 -117.176155 74 10999ft 290kts
07-Jan-18 21:06 34.285656 -117.083436 47 12819ft 311kts
07-Jan-18 21:07 34.350072 -117.009111 45 14629ft 329kts
07-Jan-18 21:08 34.416191 -116.929272 46 16523ft 341kts
07-Jan-18 21:09 34.483632 -116.847120 47 18526ft 344kts
07-Jan-18 21:10 34.550952 -116.764792 47 20518ft 343kts
07-Jan-18 21:11 34.617449 -116.683337 47 22445ft 338kts
07-Jan-18 21:12 34.684177 -116.601403 47 24149ft 341kts
07-Jan-18 21:13 34.752860 -116.516964 46 24953ft 371kts
07-Jan-18 21:14 34.812334 -116.408033 79 24964ft 410kts
07-Jan-18 21:15 34.846692 -116.272006 73 24966ft 421kts
07-Jan-18 21:16 34.883048 -116.136175 74 24965ft 423kts
07-Jan-18 21:17 34.919081 -115.999055 74 24972ft 425kts
07-Jan-18 21:18 34.954151 -115.864859 73 26455ft 404kts
07-Jan-18 21:19 34.988723 -115.731633 73 26972ft 424kts
07-Jan-18 21:20 35.024959 -115.591326 73 26951ft 442kts
07-Jan-18 21:21 35.062077 -115.446847 73 26942ft 447kts
07-Jan-18 21:22 35.092895 -115.326247 73 26935ft 444kts
07-Jan-18 21:23 35.135563 -115.158601 72 26929ft 443kts
07-Jan-18 21:24 35.179457 -115.018273 68 26941ft 442kts
07-Jan-18 21:25 35.223472 -114.877477 69 26934ft 442kts
07-Jan-18 21:26 35.266749 -114.736940 69 26925ft 442kts
07-Jan-18 21:27 35.302607 -114.619785 69 26921ft 441kts
07-Jan-18 21:28 35.345596 -114.478666 69 26933ft 441kts
07-Jan-18 21:29 35.395303 -114.314560 69 26956ft 440kts
07-Jan-18 21:30 35.430778 -114.196882 69 26975ft 440kts
07-Jan-18 21:31 35.473006 -114.056157 69 26989ft 440kts
07-Jan-18 21:32 35.515219 -113.914820 68 26996ft 440kts
07-Jan-18 21:33 35.557181 -113.773477 69 26452ft 438kts
07-Jan-18 21:34 35.597721 -113.636157 69 25254ft 422kts
07-Jan-18 21:35 35.636586 -113.501042 72 24178ft 413kts
07-Jan-18 21:36 35.668198 -113.368670 73 23970ft 398kts
07-Jan-18 21:37 35.700186 -113.236790 73 22389ft 394kts
07-Jan-18 21:38 35.730708 -113.111157 73 20583ft 376kts
07-Jan-18 21:39 35.760451 -112.988254 73 18786ft 371kts
07-Jan-18 21:40 35.788909 -112.870100 73 16980ft 345kts
07-Jan-18 21:41 35.815355 -112.759800 73 15181ft 330kts
07-Jan-18 21:42 35.841103 -112.651950 73 13383ft 326kts
07-Jan-18 21:43 35.866600 -112.544633 73 11582ft 324kts
07-Jan-18 21:44 35.889726 -112.443494 78 11089ft 293kts
07-Jan-18 21:45 35.901808 -112.347315 84 11021ft 271kts
07-Jan-18 21:46 35.892553 -112.263282 88 9984ft 211kts
07-Jan-18 21:47 35.902341 -112.205508 60 8019ft 161kts
07-Jan-18 21:48 35.932379 -112.168090 42 6924ft 145kts
07-Jan-18 21:49 35.955882 -112.143245 39 6612ft 61kts
07-Jan-18 21:50 35.960228 -112.136921 215 6612ft 21kts
07-Jan-18 21:51 35.958354 -112.138591 39 6612ft 0kts

Navigation Log

Ident Type
Flight plan parsing failed, navigation log unavailable